createdAt,value
2017-09-01T00:09:18.188Z,13.80
2017-09-01T00:11:44.559Z,13.70
2017-09-01T00:14:11.011Z,13.60
2017-09-01T00:16:37.516Z,13.50
2017-09-01T00:19:03.894Z,13.50
2017-09-01T00:21:30.361Z,13.40
2017-09-01T00:23:56.768Z,13.50
2017-09-01T00:26:23.268Z,13.40
2017-09-01T00:28:49.656Z,13.40
2017-09-01T00:31:16.069Z,13.30
2017-09-01T00:33:42.579Z,13.30
2017-09-01T00:36:08.956Z,13.30
2017-09-01T00:38:35.452Z,13.40
2017-09-01T00:41:01.919Z,13.40
2017-09-01T00:43:28.373Z,13.40
2017-09-01T00:45:54.811Z,13.40
2017-09-01T00:48:21.229Z,13.30
2017-09-01T00:50:47.642Z,13.30
2017-09-01T00:53:14.062Z,13.30
2017-09-01T00:55:40.515Z,13.30
2017-09-01T00:58:07.009Z,13.30
2017-09-01T01:00:33.438Z,13.20
2017-09-01T01:02:59.887Z,13.30
2017-09-01T01:05:26.312Z,13.30
2017-09-01T01:07:52.844Z,13.20
2017-09-01T01:10:19.295Z,13.20
2017-09-01T01:12:45.798Z,13.20
2017-09-01T01:15:12.267Z,13.10
2017-09-01T01:17:38.689Z,13.20
2017-09-01T01:20:05.137Z,13.20
2017-09-01T01:22:31.656Z,13.20
2017-09-01T01:24:58.136Z,13.10
2017-09-01T01:27:24.612Z,13.10
2017-09-01T01:29:51.056Z,12.90
2017-09-01T01:32:17.606Z,12.90
2017-09-01T01:34:44.123Z,13.00
2017-09-01T01:37:10.612Z,13.00
2017-09-01T01:39:37.090Z,13.10
2017-09-01T01:42:03.590Z,13.10
2017-09-01T01:44:30.017Z,13.00
2017-09-01T01:46:56.506Z,13.00
2017-09-01T01:49:22.923Z,13.10
2017-09-01T01:51:49.397Z,13.10
2017-09-01T01:54:15.949Z,13.20
2017-09-01T01:56:42.417Z,13.10
2017-09-01T01:59:08.945Z,13.10
2017-09-01T02:01:35.488Z,13.10
2017-09-01T02:04:01.911Z,13.20
2017-09-01T02:06:28.417Z,13.20
2017-09-01T02:08:54.889Z,13.10
2017-09-01T02:11:21.337Z,13.10
2017-09-01T02:13:47.848Z,13.10
2017-09-01T02:16:14.282Z,12.90
2017-09-01T02:18:40.777Z,13.00
2017-09-01T02:21:07.370Z,13.10
2017-09-01T02:23:33.891Z,13.00
2017-09-01T02:26:00.411Z,13.10
2017-09-01T02:28:26.849Z,13.00
2017-09-01T02:30:53.306Z,12.90
2017-09-01T02:33:19.768Z,12.90
2017-09-01T02:35:46.236Z,12.80
2017-09-01T02:38:12.687Z,12.90
2017-09-01T02:40:39.160Z,12.90
2017-09-01T02:43:05.598Z,12.90
2017-09-01T02:45:32.109Z,13.00
2017-09-01T02:47:58.560Z,12.90
2017-09-01T02:50:25.089Z,13.00
2017-09-01T02:52:51.583Z,12.90
2017-09-01T02:55:18.032Z,13.00
2017-09-01T02:57:44.461Z,13.00
2017-09-01T03:00:10.953Z,12.90
2017-09-01T03:02:37.445Z,12.90
2017-09-01T03:05:04.004Z,12.90
2017-09-01T03:07:30.492Z,12.90
2017-09-01T03:09:56.917Z,12.80
2017-09-01T03:12:23.389Z,12.80
2017-09-01T03:14:49.908Z,12.70
2017-09-01T03:17:16.398Z,12.80
2017-09-01T03:19:42.862Z,12.80
2017-09-01T03:22:09.386Z,12.80
2017-09-01T03:24:35.989Z,12.60
2017-09-01T03:27:02.486Z,12.50
2017-09-01T03:29:29.573Z,12.50
2017-09-01T03:31:56.069Z,12.40
2017-09-01T03:34:22.548Z,12.30
2017-09-01T03:36:49.028Z,12.30
2017-09-01T03:39:15.529Z,12.20
2017-09-01T03:41:42.009Z,12.10
2017-09-01T03:44:08.534Z,12.20
2017-09-01T03:46:34.952Z,12.10
2017-09-01T03:49:01.418Z,12.10
2017-09-01T03:51:27.926Z,12.00
2017-09-01T03:53:54.362Z,12.10
2017-09-01T03:56:20.909Z,12.10
2017-09-01T03:58:47.390Z,12.20
2017-09-01T04:01:13.815Z,12.20
2017-09-01T04:03:40.274Z,12.10
2017-09-01T04:06:06.684Z,12.10
2017-09-01T04:08:33.185Z,12.00
2017-09-01T04:10:59.718Z,12.10
2017-09-01T04:13:26.218Z,12.00
2017-09-01T04:15:52.682Z,12.10
2017-09-01T04:18:19.245Z,12.10
2017-09-01T04:20:45.642Z,12.00
2017-09-01T04:23:12.153Z,12.00
2017-09-01T04:25:38.636Z,11.90
2017-09-01T04:28:05.106Z,11.90
2017-09-01T04:30:31.573Z,11.80
2017-09-01T04:32:58.006Z,11.90
2017-09-01T04:35:24.465Z,11.90
2017-09-01T04:37:50.876Z,11.90
2017-09-01T04:40:17.392Z,11.70
2017-09-01T04:42:43.885Z,11.70
2017-09-01T04:45:10.306Z,11.70
2017-09-01T04:47:36.784Z,11.80
2017-09-01T04:50:03.222Z,11.80
2017-09-01T04:52:29.672Z,11.90
2017-09-01T04:54:56.197Z,11.80
2017-09-01T04:57:22.625Z,11.70
2017-09-01T04:59:49.152Z,11.70
2017-09-01T05:02:15.675Z,11.60
2017-09-01T05:04:42.129Z,11.60
2017-09-01T05:07:08.520Z,11.60
2017-09-01T05:09:34.980Z,11.60
2017-09-01T05:12:01.430Z,11.60
2017-09-01T05:14:27.885Z,11.70
2017-09-01T05:16:54.334Z,11.60
2017-09-01T05:19:20.744Z,11.70
2017-09-01T05:21:47.144Z,11.60
2017-09-01T05:24:13.669Z,11.60
2017-09-01T05:26:40.234Z,11.60
2017-09-01T05:29:06.641Z,11.70
2017-09-01T05:31:33.041Z,11.70
2017-09-01T05:33:59.449Z,11.70
2017-09-01T05:36:25.956Z,11.70
2017-09-01T05:38:52.391Z,11.70
2017-09-01T05:41:18.794Z,11.70
2017-09-01T05:43:45.157Z,11.70
2017-09-01T05:46:12.337Z,11.70
2017-09-01T05:48:38.715Z,11.70
2017-09-01T05:51:05.131Z,11.70
2017-09-01T05:53:31.673Z,11.70
2017-09-01T05:55:58.102Z,11.60
2017-09-01T05:58:24.474Z,11.60
2017-09-01T06:00:51.701Z,11.70
2017-09-01T06:03:18.092Z,11.70
2017-09-01T06:05:44.552Z,11.70
2017-09-01T06:08:10.917Z,11.80
2017-09-01T06:10:37.277Z,11.60
2017-09-01T06:13:03.699Z,11.60
2017-09-01T06:15:30.080Z,11.60
2017-09-01T06:17:56.511Z,11.50
2017-09-01T06:20:23.007Z,11.60
2017-09-01T06:22:49.457Z,11.50
2017-09-01T06:25:15.889Z,11.50
2017-09-01T06:27:42.255Z,11.50
2017-09-01T06:30:08.670Z,11.50
2017-09-01T06:32:35.075Z,11.60
2017-09-01T06:35:01.506Z,11.60
2017-09-01T06:37:27.951Z,11.60
2017-09-01T06:39:54.349Z,11.60
2017-09-01T06:42:20.723Z,11.60
2017-09-01T06:44:47.153Z,11.70
2017-09-01T06:47:14.228Z,11.70
2017-09-01T06:49:40.673Z,11.70
2017-09-01T06:52:07.171Z,11.80
2017-09-01T06:54:33.554Z,11.70
2017-09-01T06:56:59.936Z,11.80
2017-09-01T06:59:26.339Z,11.90
2017-09-01T07:01:52.729Z,11.90
2017-09-01T07:04:19.155Z,12.00
2017-09-01T07:06:45.562Z,12.00
2017-09-01T07:09:12.952Z,12.00
2017-09-01T07:11:39.481Z,12.10
2017-09-01T07:14:05.889Z,11.90
2017-09-01T07:16:32.563Z,12.00
2017-09-01T07:18:58.983Z,12.10
2017-09-01T07:21:25.368Z,12.10
2017-09-01T07:23:51.734Z,12.00
2017-09-01T07:26:18.172Z,12.10
2017-09-01T07:28:44.560Z,12.20
2017-09-01T07:31:10.965Z,12.10
2017-09-01T07:33:37.693Z,12.00
2017-09-01T07:36:04.227Z,12.00
2017-09-01T07:38:30.642Z,11.90
2017-09-01T07:40:57.025Z,11.90
2017-09-01T07:43:23.441Z,11.90
2017-09-01T07:45:50.007Z,11.90
2017-09-01T07:48:16.389Z,11.80
2017-09-01T07:50:42.785Z,11.80
2017-09-01T07:53:09.177Z,11.90
2017-09-01T07:55:35.573Z,11.90
2017-09-01T07:58:02.047Z,11.90
2017-09-01T08:00:28.438Z,11.90
2017-09-01T08:02:54.844Z,12.00
2017-09-01T08:05:21.254Z,11.90
2017-09-01T08:07:47.641Z,12.10
2017-09-01T08:10:14.080Z,11.90
2017-09-01T08:12:40.504Z,11.90
2017-09-01T08:15:07.017Z,11.90
2017-09-01T08:17:33.458Z,11.90
2017-09-01T08:19:59.874Z,11.90
2017-09-01T08:22:26.297Z,11.80
2017-09-01T08:24:52.704Z,11.80
2017-09-01T08:27:19.132Z,11.70
2017-09-01T08:29:45.535Z,11.70
2017-09-01T08:32:11.969Z,11.80
2017-09-01T08:34:38.344Z,11.90
2017-09-01T08:37:04.760Z,12.00
2017-09-01T08:39:31.298Z,11.90
2017-09-01T08:41:57.728Z,12.00
2017-09-01T08:44:24.137Z,12.00
2017-09-01T08:46:50.577Z,11.90
2017-09-01T08:49:17.038Z,11.90
2017-09-01T08:51:43.431Z,12.00
2017-09-01T08:54:09.855Z,12.00
2017-09-01T08:56:36.254Z,12.10
2017-09-01T08:59:02.644Z,12.10
2017-09-01T09:01:29.035Z,12.20
2017-09-01T09:03:55.521Z,12.10
2017-09-01T09:06:21.985Z,12.10
2017-09-01T09:08:48.441Z,12.10
2017-09-01T09:11:14.946Z,11.90
2017-09-01T09:13:41.425Z,12.10
2017-09-01T09:16:07.993Z,12.10
2017-09-01T09:18:34.601Z,12.20
2017-09-01T09:21:01.143Z,12.20
2017-09-01T09:23:27.677Z,11.90
2017-09-01T09:25:54.170Z,12.00
2017-09-01T09:28:20.654Z,12.20
2017-09-01T09:30:47.126Z,12.20
2017-09-01T09:33:13.594Z,12.30
2017-09-01T09:35:40.089Z,12.30
2017-09-01T09:38:06.560Z,12.30
2017-09-01T09:40:33.018Z,12.40
2017-09-01T09:42:59.471Z,12.30
2017-09-01T09:45:25.945Z,12.30
2017-09-01T09:47:52.429Z,12.20
2017-09-01T09:50:18.905Z,12.30
2017-09-01T09:52:45.582Z,12.50
2017-09-01T09:55:12.051Z,12.30
2017-09-01T09:57:38.518Z,12.50
2017-09-01T10:00:04.993Z,12.60
2017-09-01T10:02:31.529Z,12.60
2017-09-01T10:04:58.051Z,12.70
2017-09-01T10:07:24.658Z,12.70
2017-09-01T10:09:51.142Z,12.70
2017-09-01T10:12:17.643Z,12.60
2017-09-01T10:14:44.182Z,12.80
2017-09-01T10:17:10.633Z,12.90
2017-09-01T10:19:37.136Z,12.70
2017-09-01T10:22:03.626Z,12.80
2017-09-01T10:24:30.141Z,12.80
2017-09-01T10:26:56.646Z,12.90
2017-09-01T10:29:23.113Z,12.80
2017-09-01T10:31:49.646Z,12.70
2017-09-01T10:34:16.293Z,12.80
2017-09-01T10:36:42.777Z,12.90
2017-09-01T10:39:09.253Z,12.90
2017-09-01T10:41:36.661Z,12.90
2017-09-01T10:44:03.155Z,12.80
2017-09-01T10:46:29.629Z,13.00
2017-09-01T10:49:08.410Z,13.00
2017-09-01T10:51:46.973Z,13.20
2017-09-01T10:54:25.732Z,13.50
2017-09-01T10:57:04.601Z,13.20
2017-09-01T10:59:31.027Z,13.10
2017-09-01T11:01:57.482Z,13.10
2017-09-01T11:04:24.158Z,12.90
2017-09-01T11:06:50.705Z,13.00
2017-09-01T11:09:17.182Z,13.20
2017-09-01T11:11:43.740Z,13.40
2017-09-01T11:14:10.209Z,13.40
2017-09-01T11:16:36.679Z,13.70
2017-09-01T11:19:09.351Z,13.80
2017-09-01T11:21:41.913Z,13.80
2017-09-01T11:24:14.501Z,13.80
2017-09-01T11:26:41.674Z,13.80
2017-09-01T11:29:08.199Z,13.80
2017-09-01T11:31:34.721Z,13.80
2017-09-01T11:34:01.210Z,13.80
2017-09-01T11:36:27.771Z,13.70
2017-09-01T11:38:54.265Z,13.70
2017-09-01T11:41:20.740Z,13.70
2017-09-01T11:43:47.242Z,13.60
2017-09-01T11:46:13.892Z,13.60
2017-09-01T11:48:40.345Z,13.50
2017-09-01T11:51:07.401Z,13.60
2017-09-01T11:53:34.196Z,13.50
2017-09-01T11:56:00.668Z,13.60
2017-09-01T11:58:27.128Z,13.40
2017-09-01T12:00:53.645Z,13.50
2017-09-01T12:03:20.110Z,13.40
2017-09-01T12:05:46.594Z,13.60
2017-09-01T12:08:13.056Z,13.60
2017-09-01T12:10:39.614Z,13.50
2017-09-01T12:13:06.065Z,13.40
2017-09-01T12:15:32.592Z,13.30
2017-09-01T12:17:59.349Z,13.30
2017-09-01T12:20:25.850Z,13.40
2017-09-01T12:22:52.326Z,13.30
2017-09-01T12:25:18.806Z,13.40
2017-09-01T12:27:45.273Z,13.40
2017-09-01T12:30:11.834Z,13.30
2017-09-01T12:32:38.286Z,13.40
2017-09-01T12:35:04.768Z,13.50
2017-09-01T12:37:31.291Z,13.80
2017-09-01T12:39:57.811Z,13.70
2017-09-01T12:42:24.319Z,13.80
2017-09-01T12:44:50.797Z,14.10
2017-09-01T12:47:17.282Z,14.10
2017-09-01T12:49:43.753Z,13.90
2017-09-01T12:52:10.258Z,14.00
2017-09-01T12:54:36.712Z,13.90
2017-09-01T12:57:03.202Z,13.50
2017-09-01T12:59:29.701Z,13.40
2017-09-01T13:01:56.169Z,13.30
2017-09-01T13:04:22.673Z,13.50
2017-09-01T13:06:49.201Z,13.60
2017-09-01T13:09:15.681Z,13.60
2017-09-01T13:11:42.181Z,13.80
2017-09-01T13:14:08.679Z,13.80
2017-09-01T13:16:35.178Z,13.80
2017-09-01T13:19:02.607Z,13.90
2017-09-01T14:12:26.279Z,14.50
2017-09-01T14:14:52.700Z,14.40
2017-09-01T14:17:19.129Z,14.20
2017-09-01T14:22:55.350Z,14.30
2017-09-01T14:25:21.812Z,14.30
2017-09-01T14:27:48.329Z,14.10
2017-09-01T14:30:14.765Z,14.10
2017-09-01T14:32:41.215Z,13.90
2017-09-01T14:35:07.649Z,13.80
2017-09-01T14:37:34.077Z,13.80
2017-09-01T14:40:00.492Z,14.20
2017-09-01T14:42:26.978Z,14.30
2017-09-01T14:44:53.515Z,14.30
2017-09-01T14:47:19.957Z,14.50
2017-09-01T14:49:46.380Z,14.30
2017-09-01T14:52:12.857Z,14.30
2017-09-01T14:54:39.328Z,14.40
2017-09-01T14:57:05.796Z,14.30
2017-09-01T14:59:32.228Z,14.30
2017-09-01T15:01:58.680Z,14.20
2017-09-01T15:04:25.126Z,13.90
2017-09-01T15:06:51.598Z,14.20
2017-09-01T15:09:18.033Z,14.40
2017-09-01T15:11:44.498Z,14.30
2017-09-01T15:14:10.978Z,14.10
2017-09-01T15:16:37.440Z,14.20
2017-09-01T15:19:03.909Z,14.50
2017-09-01T15:21:30.370Z,14.50
2017-09-01T15:23:56.805Z,14.30
2017-09-01T15:26:23.265Z,13.80
2017-09-01T15:28:49.757Z,13.80
2017-09-01T15:31:16.210Z,13.90
2017-09-01T15:33:42.681Z,14.00
2017-09-01T15:36:09.111Z,13.60
2017-09-01T15:38:35.617Z,13.50
2017-09-01T15:41:02.110Z,13.50
2017-09-01T15:43:28.564Z,13.80
2017-09-01T15:45:55.026Z,14.00
2017-09-01T15:48:21.581Z,14.00
2017-09-01T15:50:48.065Z,14.10
2017-09-01T15:53:14.566Z,14.00
2017-09-01T15:55:41.008Z,14.00
2017-09-01T15:58:07.420Z,14.10
2017-09-01T16:00:33.984Z,14.20
2017-09-01T16:03:00.433Z,14.00
2017-09-01T16:05:26.899Z,14.00
2017-09-01T16:07:53.481Z,13.90
2017-09-01T16:10:19.926Z,14.10
2017-09-01T16:12:46.413Z,14.00
2017-09-01T16:15:12.856Z,14.10
2017-09-01T16:17:39.277Z,14.00
2017-09-01T16:20:05.773Z,14.10
2017-09-01T16:22:32.242Z,14.20
2017-09-01T16:24:58.730Z,14.20
2017-09-01T16:27:25.199Z,14.00
2017-09-01T16:29:51.622Z,14.10
2017-09-01T16:32:18.086Z,14.10
2017-09-01T16:34:44.590Z,14.20
2017-09-01T16:37:11.049Z,14.20
2017-09-01T16:39:37.557Z,14.20
2017-09-01T16:42:04.025Z,14.30
2017-09-01T16:44:30.503Z,14.40
2017-09-01T16:46:56.950Z,14.20
2017-09-01T16:49:23.402Z,14.10
2017-09-01T16:51:50.012Z,13.90
2017-09-01T16:54:16.437Z,13.70
2017-09-01T16:56:42.910Z,13.70
2017-09-01T16:59:09.453Z,13.80
2017-09-01T17:01:35.890Z,13.90
2017-09-01T17:04:02.366Z,13.80
2017-09-01T17:06:29.590Z,13.80
2017-09-01T17:08:56.045Z,13.80
2017-09-01T17:11:22.496Z,13.90
2017-09-01T17:13:49.057Z,13.90
2017-09-01T17:16:15.505Z,13.80
2017-09-01T17:18:41.983Z,13.70
2017-09-01T17:21:08.448Z,13.50
2017-09-01T17:23:34.889Z,13.30
2017-09-01T17:26:01.369Z,13.00
2017-09-01T17:28:27.821Z,13.00
2017-09-01T17:30:54.276Z,12.90
2017-09-01T17:33:20.729Z,13.10
2017-09-01T17:35:47.263Z,13.10
2017-09-01T17:38:13.702Z,13.20
2017-09-01T17:40:40.218Z,13.30
2017-09-01T17:43:06.678Z,13.20
2017-09-01T17:45:33.157Z,13.10
2017-09-01T17:47:59.714Z,13.20
2017-09-01T17:50:26.169Z,13.30
2017-09-01T17:52:52.648Z,13.40
2017-09-01T17:55:19.119Z,13.60
2017-09-01T17:57:45.546Z,13.50
2017-09-01T18:00:12.042Z,13.60
2017-09-01T18:02:38.476Z,13.50
2017-09-01T18:05:04.917Z,13.40
2017-09-01T18:07:31.399Z,13.40
2017-09-01T18:09:57.873Z,13.40
2017-09-01T18:12:24.336Z,13.10
2017-09-01T18:14:50.798Z,13.00
2017-09-01T18:17:17.253Z,12.90
2017-09-01T18:19:43.797Z,12.90
2017-09-01T18:22:10.218Z,12.80
2017-09-01T18:24:36.679Z,12.80
2017-09-01T18:27:03.150Z,12.80
2017-09-01T18:29:29.639Z,12.80
2017-09-01T18:31:56.194Z,12.80
2017-09-01T18:34:22.663Z,12.60
2017-09-01T18:36:49.141Z,12.50
2017-09-01T18:39:15.590Z,12.10
2017-09-01T18:41:42.138Z,12.00
2017-09-01T18:44:08.621Z,12.00
2017-09-01T18:46:35.202Z,12.00
2017-09-01T18:49:01.655Z,12.20
2017-09-01T18:51:28.109Z,12.30
2017-09-01T18:53:54.653Z,12.30
2017-09-01T18:56:21.091Z,12.10
2017-09-01T18:58:47.565Z,12.10
2017-09-01T19:01:14.025Z,12.10
2017-09-01T19:03:40.466Z,12.10
2017-09-01T19:06:06.966Z,12.20
2017-09-01T19:08:33.416Z,12.30
2017-09-01T19:10:59.986Z,12.40
2017-09-01T19:13:26.434Z,12.50
2017-09-01T19:15:52.934Z,12.60
2017-09-01T19:18:19.867Z,12.60
2017-09-01T19:20:46.346Z,12.70
2017-09-01T19:23:12.820Z,12.60
2017-09-01T19:25:39.331Z,12.70
2017-09-01T19:28:05.774Z,12.70
2017-09-01T19:30:32.410Z,12.60
2017-09-01T19:32:58.861Z,12.60
2017-09-01T19:35:25.314Z,12.60
2017-09-01T19:37:51.821Z,12.60
2017-09-01T19:40:18.272Z,12.60
2017-09-01T19:42:44.750Z,12.60
2017-09-01T19:45:11.321Z,12.60
2017-09-01T19:47:37.754Z,12.60
2017-09-01T19:50:04.205Z,12.60
2017-09-01T19:52:30.721Z,12.60
2017-09-01T19:54:57.289Z,12.60
2017-09-01T19:57:23.751Z,12.50
2017-09-01T19:59:50.231Z,12.50
2017-09-01T20:02:16.743Z,12.40
2017-09-01T20:04:43.258Z,12.50
2017-09-01T20:07:09.684Z,12.60
2017-09-01T20:09:36.134Z,12.60
2017-09-01T20:12:02.637Z,12.70
2017-09-01T20:14:29.117Z,12.60
2017-09-01T20:16:55.670Z,12.70
2017-09-01T20:19:22.130Z,12.60
2017-09-01T20:21:48.609Z,12.70
2017-09-01T20:24:15.065Z,12.70
2017-09-01T20:26:41.611Z,12.70
2017-09-01T20:29:08.116Z,12.70
2017-09-01T20:31:34.545Z,12.70
2017-09-01T20:34:01.016Z,12.70
2017-09-01T20:36:27.544Z,12.70
2017-09-01T20:38:54.002Z,12.70
2017-09-01T20:41:20.679Z,12.60
2017-09-01T20:43:47.125Z,12.60
2017-09-01T20:46:13.598Z,12.50
2017-09-01T20:48:40.065Z,12.50
2017-09-01T20:51:06.548Z,12.50
2017-09-01T20:53:33.036Z,12.60
2017-09-01T20:55:59.617Z,12.60
2017-09-01T20:58:26.081Z,12.40
2017-09-01T21:00:52.586Z,12.20
2017-09-01T21:03:19.110Z,12.30
2017-09-01T21:05:45.645Z,12.40
2017-09-01T21:08:12.144Z,12.40
2017-09-01T21:10:38.588Z,12.30
2017-09-01T21:13:05.042Z,12.30
2017-09-01T21:15:31.528Z,12.30
2017-09-01T21:17:58.086Z,12.30
2017-09-01T21:20:24.536Z,12.30
2017-09-01T21:22:50.990Z,12.30
2017-09-01T21:25:17.508Z,12.10
2017-09-01T21:27:43.976Z,11.90
2017-09-01T21:30:10.450Z,11.70
2017-09-01T21:32:36.922Z,11.90
2017-09-01T21:35:03.390Z,11.90
2017-09-01T21:37:29.861Z,11.90
2017-09-01T21:39:56.314Z,12.00
2017-09-01T21:42:22.847Z,12.10
2017-09-01T21:44:49.334Z,12.10
2017-09-01T21:47:15.773Z,12.10
2017-09-01T21:49:42.236Z,12.10
2017-09-01T21:52:08.713Z,12.00
2017-09-01T21:54:35.172Z,12.10
2017-09-01T21:57:01.714Z,12.10
2017-09-01T21:59:28.195Z,12.10
2017-09-01T22:01:54.664Z,12.10
2017-09-01T22:04:21.221Z,12.00
2017-09-01T22:06:47.706Z,12.10
2017-09-01T22:09:14.174Z,12.10
2017-09-01T22:11:40.653Z,12.20
2017-09-01T22:14:07.437Z,12.10
2017-09-01T22:16:33.885Z,12.20
2017-09-01T22:19:00.321Z,12.20
2017-09-01T22:21:26.801Z,12.20
2017-09-01T22:23:53.277Z,12.10
2017-09-01T22:26:19.731Z,12.10
2017-09-01T22:28:46.203Z,12.10
2017-09-01T22:31:12.650Z,12.10
2017-09-01T22:33:39.132Z,12.10
2017-09-01T22:36:05.633Z,12.00
2017-09-01T22:38:32.113Z,12.10
2017-09-01T22:40:58.605Z,12.10
2017-09-01T22:43:25.048Z,11.90
2017-09-01T22:45:51.615Z,11.70
2017-09-01T22:48:18.069Z,11.50
2017-09-01T22:50:44.560Z,11.60
2017-09-01T22:53:11.002Z,11.70
2017-09-01T22:55:37.502Z,11.60
2017-09-01T22:58:04.017Z,11.80
2017-09-01T23:00:30.493Z,11.40
2017-09-01T23:02:56.878Z,11.40
2017-09-01T23:05:23.349Z,11.60
2017-09-01T23:07:49.780Z,11.70
2017-09-01T23:10:16.292Z,11.70
2017-09-01T23:12:42.737Z,11.80
2017-09-01T23:15:09.188Z,11.80
2017-09-01T23:17:35.637Z,11.90
2017-09-01T23:20:02.070Z,11.80
2017-09-01T23:22:28.566Z,11.80
2017-09-01T23:24:55.040Z,11.90
2017-09-01T23:27:21.474Z,11.90
2017-09-01T23:29:47.945Z,11.90
2017-09-01T23:32:14.356Z,11.90
2017-09-01T23:34:40.804Z,11.80
2017-09-01T23:37:07.302Z,11.60
2017-09-01T23:39:33.750Z,11.30
2017-09-01T23:42:00.205Z,11.30
2017-09-01T23:44:26.667Z,11.40
2017-09-01T23:46:53.136Z,11.50
2017-09-01T23:49:19.588Z,11.50
2017-09-01T23:51:46.063Z,11.60
2017-09-01T23:54:12.514Z,11.60
2017-09-01T23:56:38.981Z,11.70
2017-09-01T23:59:05.461Z,11.80
